Main page
METAR-TAF:

METAR-TAF

Airports :

Asturias Airport

Avilés, Spain

latitude: 43-33N, longitude: 006-02W, elevation: 127 m

Current weather observation

The report was made 21 minutes ago, at 09:30 UTC
Wind 8 kt from the South/Southeast, varying between East/Southeast and South
Temperature 19°C
Humidity 56%
Pressure 1013 hPa
Visibility 10 km or more
Few clouds at a height of 3000 ft

METAR: LEAS 170930Z 16008KT 120V190 9999 FEW030 19/10 Q1013 NOSIG

Time: 10:51 (09:51 UTC)

Forecast

The report was made 1 hour and 51 minutes ago, at 08:00 UTC
Forecast valid from 17 at 09 UTC to 18 at 09 UTC
Wind 9 kt from the South/Southeast
Visibility 10 km or more
no clouds below 1500 m and no cumulonimbus
Probability 30% :
Temporary
from 17 at 13 UTC to 17 at 18 UTC
Wind 10 kt from the East

TAF: LEAS 170800Z 1709/1809 16009KT CAVOK TX21/1715Z TN08/1806Z PROB30 TEMPO 1713/1718 10010KT

Weather observations and forecasts of more than 4000 airports (METAR and TAF reports).

The available stations are represented by yellow and red dots on the map.

Hover mouse over dot to see the name of the station.

Then click to see weather observations and forecasts.

To change the map : click on the green buttons with a black cross to zoom in, on the green button with a dash to zoom out, or on the green arrows for adjacent maps.


METAR-TAF: